sensor_id;sensor_type;location;lat;lon;timestamp;P1;durP1;ratioP1;P2;durP2;ratioP2
72586;SDS011;60621;49.576;11.024;2023-06-14T00:00:16;8.70;;;4.53;;
72586;SDS011;60621;49.576;11.024;2023-06-14T00:01:18;7.15;;;4.80;;
72586;SDS011;60621;49.576;11.024;2023-06-14T00:02:21;7.47;;;4.40;;
72586;SDS011;60621;49.576;11.024;2023-06-14T00:03:23;6.55;;;4.72;;
72586;SDS011;60621;49.576;11.024;2023-06-14T00:04:26;8.20;;;4.78;;
72586;SDS011;60621;49.576;11.024;2023-06-14T00:05:28;6.97;;;4.68;;
72586;SDS011;60621;49.576;11.024;2023-06-14T00:06:31;7.90;;;4.40;;
72586;SDS011;60621;49.576;11.024;2023-06-14T00:07:39;6.63;;;4.50;;
72586;SDS011;60621;49.576;11.024;2023-06-14T00:08:45;7.07;;;4.85;;
72586;SDS011;60621;49.576;11.024;2023-06-14T00:09:47;7.45;;;4.65;;
72586;SDS011;60621;49.576;11.024;2023-06-14T00:10:49;6.93;;;4.30;;
72586;SDS011;60621;49.576;11.024;2023-06-14T00:11:50;8.60;;;4.80;;
72586;SDS011;60621;49.576;11.024;2023-06-14T00:12:52;9.02;;;5.05;;
72586;SDS011;60621;49.576;11.024;2023-06-14T00:13:54;9.10;;;4.88;;
72586;SDS011;60621;49.576;11.024;2023-06-14T00:14:55;7.80;;;4.75;;
72586;SDS011;60621;49.576;11.024;2023-06-14T00:15:57;7.60;;;4.60;;
72586;SDS011;60621;49.576;11.024;2023-06-14T00:16:59;9.63;;;5.00;;
72586;SDS011;60621;49.576;11.024;2023-06-14T00:18:01;8.82;;;5.00;;
72586;SDS011;60621;49.576;11.024;2023-06-14T00:19:03;8.40;;;4.97;;
72586;SDS011;60621;49.576;11.024;2023-06-14T00:20:08;7.63;;;5.10;;
72586;SDS011;60621;49.576;11.024;2023-06-14T00:21:11;6.97;;;4.63;;
72586;SDS011;60621;49.576;11.024;2023-06-14T00:22:13;7.20;;;4.97;;
72586;SDS011;60621;49.576;11.024;2023-06-14T00:23:15;7.22;;;4.63;;
72586;SDS011;60621;49.576;11.024;2023-06-14T00:24:17;12.63;;;5.07;;
72586;SDS011;60621;49.576;11.024;2023-06-14T00:25:19;9.80;;;4.80;;
72586;SDS011;60621;49.576;11.024;2023-06-14T00:26:30;10.80;;;5.10;;
72586;SDS011;60621;49.576;11.024;2023-06-14T00:27:31;7.45;;;4.78;;
72586;SDS011;60621;49.576;11.024;2023-06-14T00:28:33;8.38;;;4.57;;
72586;SDS011;60621;49.576;11.024;2023-06-14T00:29:34;8.43;;;5.13;;
72586;SDS011;60621;49.576;11.024;2023-06-14T00:30:36;9.13;;;5.05;;
72586;SDS011;60621;49.576;11.024;2023-06-14T00:31:38;7.60;;;4.82;;
72586;SDS011;60621;49.576;11.024;2023-06-14T00:32:39;8.75;;;5.07;;
72586;SDS011;60621;49.576;11.024;2023-06-14T00:33:41;7.00;;;5.18;;
72586;SDS011;60621;49.576;11.024;2023-06-14T00:34:43;9.27;;;5.55;;
72586;SDS011;60621;49.576;11.024;2023-06-14T00:35:45;8.27;;;4.80;;
72586;SDS011;60621;49.576;11.024;2023-06-14T00:36:46;8.52;;;5.38;;
72586;SDS011;60621;49.576;11.024;2023-06-14T00:37:48;8.23;;;5.30;;
72586;SDS011;60621;49.576;11.024;2023-06-14T00:38:49;8.60;;;5.00;;
72586;SDS011;60621;49.576;11.024;2023-06-14T00:39:51;8.90;;;5.20;;
72586;SDS011;60621;49.576;11.024;2023-06-14T00:40:52;10.60;;;5.30;;
72586;SDS011;60621;49.576;11.024;2023-06-14T00:41:54;7.95;;;5.00;;
72586;SDS011;60621;49.576;11.024;2023-06-14T00:42:55;7.13;;;4.93;;
72586;SDS011;60621;49.576;11.024;2023-06-14T00:43:57;7.90;;;5.22;;
72586;SDS011;60621;49.576;11.024;2023-06-14T00:44:59;9.93;;;5.05;;
72586;SDS011;60621;49.576;11.024;2023-06-14T00:46:01;9.48;;;5.43;;
72586;SDS011;60621;49.576;11.024;2023-06-14T00:47:03;9.82;;;5.20;;
72586;SDS011;60621;49.576;11.024;2023-06-14T00:48:05;8.85;;;5.28;;
72586;SDS011;60621;49.576;11.024;2023-06-14T00:49:10;7.00;;;4.80;;
72586;SDS011;60621;49.576;11.024;2023-06-14T00:51:14;7.90;;;4.82;;
72586;SDS011;60621;49.576;11.024;2023-06-14T00:52:16;9.50;;;5.13;;
72586;SDS011;60621;49.576;11.024;2023-06-14T00:53:19;7.35;;;5.35;;
72586;SDS011;60621;49.576;11.024;2023-06-14T00:54:24;7.97;;;4.80;;
72586;SDS011;60621;49.576;11.024;2023-06-14T00:55:25;7.90;;;5.22;;
72586;SDS011;60621;49.576;11.024;2023-06-14T00:56:27;8.32;;;4.80;;
72586;SDS011;60621;49.576;11.024;2023-06-14T00:57:29;10.57;;;5.32;;
72586;SDS011;60621;49.576;11.024;2023-06-14T00:58:31;9.30;;;5.00;;
72586;SDS011;60621;49.576;11.024;2023-06-14T00:59:34;10.05;;;5.20;;
72586;SDS011;60621;49.576;11.024;2023-06-14T01:00:40;9.18;;;5.07;;
72586;SDS011;60621;49.576;11.024;2023-06-14T01:01:41;10.85;;;5.25;;
72586;SDS011;60621;49.576;11.024;2023-06-14T01:02:43;8.18;;;5.10;;
72586;SDS011;60621;49.576;11.024;2023-06-14T01:03:45;8.65;;;4.88;;
72586;SDS011;60621;49.576;11.024;2023-06-14T01:04:47;8.57;;;5.22;;
72586;SDS011;60621;49.576;11.024;2023-06-14T01:05:52;8.30;;;5.28;;
72586;SDS011;60621;49.576;11.024;2023-06-14T01:10:08;9.65;;;5.13;;
72586;SDS011;60621;49.576;11.024;2023-06-14T01:11:24;7.80;;;5.03;;
72586;SDS011;60621;49.576;11.024;2023-06-14T01:13:54;7.50;;;4.55;;
72586;SDS011;60621;49.576;11.024;2023-06-14T01:14:59;8.90;;;5.15;;
72586;SDS011;60621;49.576;11.024;2023-06-14T01:16:02;7.63;;;4.82;;
72586;SDS011;60621;49.576;11.024;2023-06-14T01:17:05;7.97;;;4.72;;
72586;SDS011;60621;49.576;11.024;2023-06-14T01:18:09;7.75;;;4.60;;
72586;SDS011;60621;49.576;11.024;2023-06-14T01:19:19;9.02;;;4.95;;
72586;SDS011;60621;49.576;11.024;2023-06-14T01:20:27;7.97;;;4.65;;
72586;SDS011;60621;49.576;11.024;2023-06-14T01:21:30;8.80;;;5.47;;
72586;SDS011;60621;49.576;11.024;2023-06-14T01:22:35;7.28;;;4.85;;
72586;SDS011;60621;49.576;11.024;2023-06-14T01:23:37;8.88;;;4.90;;
72586;SDS011;60621;49.576;11.024;2023-06-14T01:24:38;8.70;;;4.88;;
72586;SDS011;60621;49.576;11.024;2023-06-14T01:25:40;7.78;;;4.78;;
72586;SDS011;60621;49.576;11.024;2023-06-14T01:26:45;7.72;;;5.22;;
72586;SDS011;60621;49.576;11.024;2023-06-14T01:27:54;7.72;;;4.63;;
72586;SDS011;60621;49.576;11.024;2023-06-14T01:28:59;7.57;;;5.03;;
72586;SDS011;60621;49.576;11.024;2023-06-14T01:30:01;7.53;;;4.88;;
72586;SDS011;60621;49.576;11.024;2023-06-14T01:31:05;7.57;;;4.80;;
72586;SDS011;60621;49.576;11.024;2023-06-14T01:32:08;7.85;;;5.00;;
72586;SDS011;60621;49.576;11.024;2023-06-14T01:33:13;9.07;;;5.07;;
72586;SDS011;60621;49.576;11.024;2023-06-14T01:34:16;7.32;;;4.55;;
72586;SDS011;60621;49.576;11.024;2023-06-14T01:35:18;7.78;;;4.80;;
72586;SDS011;60621;49.576;11.024;2023-06-14T01:36:20;9.15;;;5.07;;
72586;SDS011;60621;49.576;11.024;2023-06-14T01:37:24;8.25;;;5.13;;
72586;SDS011;60621;49.576;11.024;2023-06-14T01:38:26;8.80;;;4.95;;
72586;SDS011;60621;49.576;11.024;2023-06-14T01:39:29;7.22;;;4.78;;
72586;SDS011;60621;49.576;11.024;2023-06-14T01:40:32;8.18;;;4.82;;
72586;SDS011;60621;49.576;11.024;2023-06-14T01:41:36;7.40;;;4.28;;
72586;SDS011;60621;49.576;11.024;2023-06-14T01:42:38;8.05;;;5.18;;
72586;SDS011;60621;49.576;11.024;2023-06-14T01:43:40;7.53;;;4.60;;
72586;SDS011;60621;49.576;11.024;2023-06-14T01:44:42;7.30;;;4.85;;
72586;SDS011;60621;49.576;11.024;2023-06-14T01:45:47;7.07;;;4.32;;
72586;SDS011;60621;49.576;11.024;2023-06-14T01:46:50;7.25;;;4.72;;
72586;SDS011;60621;49.576;11.024;2023-06-14T01:47:52;8.38;;;4.68;;
72586;SDS011;60621;49.576;11.024;2023-06-14T01:48:54;7.18;;;4.53;;
72586;SDS011;60621;49.576;11.024;2023-06-14T01:49:55;8.65;;;5.05;;
72586;SDS011;60621;49.576;11.024;2023-06-14T01:50:57;9.02;;;4.68;;
72586;SDS011;60621;49.576;11.024;2023-06-14T01:51:58;7.65;;;5.07;;
72586;SDS011;60621;49.576;11.024;2023-06-14T01:53:00;7.50;;;4.50;;
72586;SDS011;60621;49.576;11.024;2023-06-14T01:54:02;7.03;;;4.88;;
72586;SDS011;60621;49.576;11.024;2023-06-14T01:55:04;7.78;;;4.95;;
72586;SDS011;60621;49.576;11.024;2023-06-14T01:56:06;8.00;;;4.80;;
72586;SDS011;60621;49.576;11.024;2023-06-14T01:57:08;6.65;;;4.30;;
72586;SDS011;60621;49.576;11.024;2023-06-14T01:58:11;7.53;;;4.78;;
72586;SDS011;60621;49.576;11.024;2023-06-14T01:59:14;9.10;;;5.07;;
72586;SDS011;60621;49.576;11.024;2023-06-14T02:00:15;10.00;;;5.43;;
72586;SDS011;60621;49.576;11.024;2023-06-14T02:01:19;8.43;;;5.15;;
72586;SDS011;60621;49.576;11.024;2023-06-14T02:02:22;8.55;;;4.78;;
72586;SDS011;60621;49.576;11.024;2023-06-14T02:03:24;7.88;;;4.47;;
72586;SDS011;60621;49.576;11.024;2023-06-14T02:04:26;7.15;;;4.65;;
72586;SDS011;60621;49.576;11.024;2023-06-14T02:05:28;7.85;;;5.07;;
72586;SDS011;60621;49.576;11.024;2023-06-14T02:06:29;7.40;;;5.10;;
72586;SDS011;60621;49.576;11.024;2023-06-14T02:07:31;10.30;;;5.70;;
72586;SDS011;60621;49.576;11.024;2023-06-14T02:08:33;7.75;;;5.22;;
72586;SDS011;60621;49.576;11.024;2023-06-14T02:09:35;7.57;;;5.05;;
72586;SDS011;60621;49.576;11.024;2023-06-14T02:10:36;9.10;;;5.68;;
72586;SDS011;60621;49.576;11.024;2023-06-14T02:11:38;8.57;;;5.60;;
72586;SDS011;60621;49.576;11.024;2023-06-14T02:12:39;10.65;;;5.20;;
72586;SDS011;60621;49.576;11.024;2023-06-14T02:13:41;8.75;;;5.35;;
72586;SDS011;60621;49.576;11.024;2023-06-14T02:14:43;9.63;;;5.07;;
72586;SDS011;60621;49.576;11.024;2023-06-14T02:15:46;8.02;;;5.35;;
72586;SDS011;60621;49.576;11.024;2023-06-14T02:16:48;8.88;;;5.40;;
72586;SDS011;60621;49.576;11.024;2023-06-14T02:17:52;10.63;;;5.30;;
72586;SDS011;60621;49.576;11.024;2023-06-14T02:18:55;9.20;;;5.40;;
72586;SDS011;60621;49.576;11.024;2023-06-14T02:19:56;8.75;;;5.47;;
72586;SDS011;60621;49.576;11.024;2023-06-14T02:20:58;9.75;;;5.38;;
72586;SDS011;60621;49.576;11.024;2023-06-14T02:22:00;8.02;;;4.85;;
72586;SDS011;60621;49.576;11.024;2023-06-14T02:23:01;7.65;;;5.40;;
72586;SDS011;60621;49.576;11.024;2023-06-14T02:24:03;7.63;;;5.25;;
72586;SDS011;60621;49.576;11.024;2023-06-14T02:25:05;8.00;;;4.95;;
72586;SDS011;60621;49.576;11.024;2023-06-14T02:26:08;8.40;;;4.75;;
72586;SDS011;60621;49.576;11.024;2023-06-14T02:27:10;8.13;;;4.95;;
72586;SDS011;60621;49.576;11.024;2023-06-14T02:28:12;8.98;;;5.07;;
72586;SDS011;60621;49.576;11.024;2023-06-14T02:29:13;9.02;;;4.97;;
72586;SDS011;60621;49.576;11.024;2023-06-14T02:30:16;8.02;;;5.28;;
72586;SDS011;60621;49.576;11.024;2023-06-14T02:31:18;8.63;;;5.57;;
72586;SDS011;60621;49.576;11.024;2023-06-14T02:32:20;8.65;;;5.38;;
72586;SDS011;60621;49.576;11.024;2023-06-14T02:33:21;8.95;;;5.90;;
72586;SDS011;60621;49.576;11.024;2023-06-14T02:34:23;8.02;;;5.30;;
72586;SDS011;60621;49.576;11.024;2023-06-14T02:35:25;9.57;;;5.15;;
72586;SDS011;60621;49.576;11.024;2023-06-14T02:36:29;110.38;;;61.90;;
72586;SDS011;60621;49.576;11.024;2023-06-14T02:37:31;165.20;;;94.07;;
72586;SDS011;60621;49.576;11.024;2023-06-14T02:38:33;83.90;;;49.28;;
72586;SDS011;60621;49.576;11.024;2023-06-14T02:39:34;53.60;;;36.05;;
72586;SDS011;60621;49.576;11.024;2023-06-14T02:40:36;145.45;;;83.85;;
72586;SDS011;60621;49.576;11.024;2023-06-14T02:41:38;128.13;;;88.28;;
72586;SDS011;60621;49.576;11.024;2023-06-14T02:42:39;52.00;;;35.30;;
72586;SDS011;60621;49.576;11.024;2023-06-14T02:43:41;35.38;;;22.63;;
72586;SDS011;60621;49.576;11.024;2023-06-14T02:44:44;8.45;;;6.13;;
72586;SDS011;60621;49.576;11.024;2023-06-14T02:45:47;7.97;;;5.50;;
72586;SDS011;60621;49.576;11.024;2023-06-14T02:46:49;9.20;;;5.70;;
72586;SDS011;60621;49.576;11.024;2023-06-14T02:47:50;10.63;;;5.40;;
72586;SDS011;60621;49.576;11.024;2023-06-14T02:48:57;7.70;;;5.22;;
72586;SDS011;60621;49.576;11.024;2023-06-14T02:49:58;9.10;;;5.75;;
72586;SDS011;60621;49.576;11.024;2023-06-14T02:51:00;8.00;;;5.65;;
72586;SDS011;60621;49.576;11.024;2023-06-14T02:52:01;10.25;;;5.45;;
72586;SDS011;60621;49.576;11.024;2023-06-14T02:53:04;8.00;;;5.00;;
72586;SDS011;60621;49.576;11.024;2023-06-14T02:54:05;9.05;;;5.45;;
72586;SDS011;60621;49.576;11.024;2023-06-14T02:55:06;7.88;;;5.40;;
72586;SDS011;60621;49.576;11.024;2023-06-14T02:56:09;8.43;;;5.38;;
72586;SDS011;60621;49.576;11.024;2023-06-14T02:57:11;8.60;;;5.70;;
72586;SDS011;60621;49.576;11.024;2023-06-14T02:58:12;9.25;;;5.50;;
72586;SDS011;60621;49.576;11.024;2023-06-14T02:59:14;8.32;;;5.60;;
72586;SDS011;60621;49.576;11.024;2023-06-14T03:00:16;7.25;;;5.00;;
72586;SDS011;60621;49.576;11.024;2023-06-14T03:01:18;7.55;;;5.03;;
72586;SDS011;60621;49.576;11.024;2023-06-14T03:02:22;8.80;;;5.60;;
72586;SDS011;60621;49.576;11.024;2023-06-14T03:03:23;8.80;;;5.55;;
72586;SDS011;60621;49.576;11.024;2023-06-14T03:04:27;24.35;;;17.20;;
72586;SDS011;60621;49.576;11.024;2023-06-14T03:05:30;26.73;;;17.58;;
72586;SDS011;60621;49.576;11.024;2023-06-14T03:06:31;113.25;;;63.20;;
72586;SDS011;60621;49.576;11.024;2023-06-14T03:07:33;116.88;;;65.28;;
72586;SDS011;60621;49.576;11.024;2023-06-14T03:08:35;22.65;;;13.43;;
72586;SDS011;60621;49.576;11.024;2023-06-14T03:09:40;12.57;;;7.68;;
72586;SDS011;60621;49.576;11.024;2023-06-14T03:10:50;10.70;;;7.10;;
72586;SDS011;60621;49.576;11.024;2023-06-14T03:11:52;9.10;;;5.80;;
72586;SDS011;60621;49.576;11.024;2023-06-14T03:12:53;9.52;;;4.97;;
72586;SDS011;60621;49.576;11.024;2023-06-14T03:13:55;9.82;;;5.70;;
72586;SDS011;60621;49.576;11.024;2023-06-14T03:14:57;8.07;;;5.60;;
72586;SDS011;60621;49.576;11.024;2023-06-14T03:16:02;8.63;;;5.32;;
72586;SDS011;60621;49.576;11.024;2023-06-14T03:17:04;8.73;;;5.10;;
72586;SDS011;60621;49.576;11.024;2023-06-14T03:18:09;9.38;;;5.28;;
72586;SDS011;60621;49.576;11.024;2023-06-14T03:19:10;8.07;;;5.28;;
72586;SDS011;60621;49.576;11.024;2023-06-14T03:20:12;8.73;;;5.60;;
72586;SDS011;60621;49.576;11.024;2023-06-14T03:21:14;8.85;;;5.28;;
72586;SDS011;60621;49.576;11.024;2023-06-14T03:22:17;7.60;;;4.55;;
72586;SDS011;60621;49.576;11.024;2023-06-14T03:23:18;8.40;;;5.20;;
72586;SDS011;60621;49.576;11.024;2023-06-14T03:24:20;7.88;;;5.45;;
72586;SDS011;60621;49.576;11.024;2023-06-14T03:25:22;8.88;;;5.10;;
72586;SDS011;60621;49.576;11.024;2023-06-14T03:26:23;11.13;;;5.20;;
72586;SDS011;60621;49.576;11.024;2023-06-14T03:27:26;8.82;;;5.45;;
72586;SDS011;60621;49.576;11.024;2023-06-14T03:28:30;8.15;;;5.38;;
72586;SDS011;60621;49.576;11.024;2023-06-14T03:29:31;8.70;;;6.10;;
72586;SDS011;60621;49.576;11.024;2023-06-14T03:30:33;8.60;;;5.57;;
72586;SDS011;60621;49.576;11.024;2023-06-14T03:31:34;9.30;;;4.85;;
72586;SDS011;60621;49.576;11.024;2023-06-14T03:32:36;8.77;;;5.68;;
72586;SDS011;60621;49.576;11.024;2023-06-14T03:33:38;8.77;;;5.78;;
72586;SDS011;60621;49.576;11.024;2023-06-14T03:34:40;9.90;;;6.25;;
72586;SDS011;60621;49.576;11.024;2023-06-14T03:35:43;9.10;;;5.95;;
72586;SDS011;60621;49.576;11.024;2023-06-14T03:36:44;9.15;;;5.72;;
72586;SDS011;60621;49.576;11.024;2023-06-14T03:37:46;8.95;;;5.50;;
72586;SDS011;60621;49.576;11.024;2023-06-14T03:38:47;7.82;;;5.38;;
72586;SDS011;60621;49.576;11.024;2023-06-14T03:39:49;10.70;;;5.07;;
72586;SDS011;60621;49.576;11.024;2023-06-14T03:40:50;8.45;;;5.40;;
72586;SDS011;60621;49.576;11.024;2023-06-14T03:41:52;8.65;;;5.13;;
72586;SDS011;60621;49.576;11.024;2023-06-14T03:42:54;9.85;;;5.80;;
72586;SDS011;60621;49.576;11.024;2023-06-14T03:43:56;9.30;;;5.68;;
72586;SDS011;60621;49.576;11.024;2023-06-14T03:44:57;8.10;;;5.20;;
72586;SDS011;60621;49.576;11.024;2023-06-14T03:45:59;8.00;;;5.35;;
72586;SDS011;60621;49.576;11.024;2023-06-14T03:47:01;8.00;;;5.63;;
72586;SDS011;60621;49.576;11.024;2023-06-14T03:48:02;7.88;;;5.05;;
72586;SDS011;60621;49.576;11.024;2023-06-14T03:49:05;11.68;;;5.72;;
72586;SDS011;60621;49.576;11.024;2023-06-14T03:50:06;9.68;;;5.60;;
72586;SDS011;60621;49.576;11.024;2023-06-14T03:51:08;10.07;;;5.95;;
72586;SDS011;60621;49.576;11.024;2023-06-14T03:52:09;9.05;;;5.65;;
72586;SDS011;60621;49.576;11.024;2023-06-14T03:53:11;8.77;;;5.40;;
72586;SDS011;60621;49.576;11.024;2023-06-14T03:54:13;9.43;;;5.40;;
72586;SDS011;60621;49.576;11.024;2023-06-14T03:55:17;12.05;;;5.97;;
72586;SDS011;60621;49.576;11.024;2023-06-14T03:56:22;10.05;;;6.00;;
72586;SDS011;60621;49.576;11.024;2023-06-14T03:57:23;10.07;;;5.80;;
72586;SDS011;60621;49.576;11.024;2023-06-14T03:58:25;8.30;;;5.47;;
72586;SDS011;60621;49.576;11.024;2023-06-14T03:59:27;9.60;;;5.30;;
72586;SDS011;60621;49.576;11.024;2023-06-14T04:00:29;9.98;;;5.63;;
72586;SDS011;60621;49.576;11.024;2023-06-14T04:01:31;9.90;;;5.95;;
72586;SDS011;60621;49.576;11.024;2023-06-14T04:02:35;9.80;;;5.45;;
72586;SDS011;60621;49.576;11.024;2023-06-14T04:03:38;9.57;;;5.93;;
72586;SDS011;60621;49.576;11.024;2023-06-14T04:04:42;10.02;;;6.00;;
72586;SDS011;60621;49.576;11.024;2023-06-14T04:05:46;10.23;;;5.93;;
72586;SDS011;60621;49.576;11.024;2023-06-14T04:06:50;9.85;;;5.22;;
72586;SDS011;60621;49.576;11.024;2023-06-14T04:07:53;8.60;;;5.40;;
72586;SDS011;60621;49.576;11.024;2023-06-14T04:08:57;10.05;;;5.68;;
72586;SDS011;60621;49.576;11.024;2023-06-14T04:10:07;12.23;;;5.80;;
72586;SDS011;60621;49.576;11.024;2023-06-14T04:11:09;13.05;;;5.80;;
72586;SDS011;60621;49.576;11.024;2023-06-14T04:12:11;11.00;;;5.18;;
72586;SDS011;60621;49.576;11.024;2023-06-14T04:13:12;7.40;;;5.25;;
72586;SDS011;60621;49.576;11.024;2023-06-14T04:14:14;9.68;;;5.63;;
72586;SDS011;60621;49.576;11.024;2023-06-14T04:15:16;9.30;;;5.43;;
72586;SDS011;60621;49.576;11.024;2023-06-14T04:16:22;8.68;;;5.50;;
72586;SDS011;60621;49.576;11.024;2023-06-14T04:17:24;9.70;;;5.70;;
72586;SDS011;60621;49.576;11.024;2023-06-14T04:18:25;8.75;;;4.95;;
72586;SDS011;60621;49.576;11.024;2023-06-14T04:19:27;8.88;;;4.80;;
72586;SDS011;60621;49.576;11.024;2023-06-14T04:20:29;10.50;;;5.32;;
72586;SDS011;60621;49.576;11.024;2023-06-14T04:21:31;7.32;;;4.68;;
72586;SDS011;60621;49.576;11.024;2023-06-14T04:22:36;9.18;;;5.63;;
72586;SDS011;60621;49.576;11.024;2023-06-14T04:23:38;9.25;;;5.40;;
72586;SDS011;60621;49.576;11.024;2023-06-14T04:24:39;8.48;;;5.40;;
72586;SDS011;60621;49.576;11.024;2023-06-14T04:25:43;8.02;;;5.10;;
72586;SDS011;60621;49.576;11.024;2023-06-14T04:26:48;9.68;;;5.68;;
72586;SDS011;60621;49.576;11.024;2023-06-14T04:27:50;9.82;;;5.38;;
72586;SDS011;60621;49.576;11.024;2023-06-14T04:28:54;9.38;;;5.25;;
72586;SDS011;60621;49.576;11.024;2023-06-14T04:29:58;8.98;;;4.57;;
72586;SDS011;60621;49.576;11.024;2023-06-14T04:31:00;7.93;;;4.75;;
72586;SDS011;60621;49.576;11.024;2023-06-14T04:32:02;10.15;;;5.28;;
72586;SDS011;60621;49.576;11.024;2023-06-14T04:33:06;8.98;;;4.70;;
72586;SDS011;60621;49.576;11.024;2023-06-14T04:34:07;8.43;;;5.10;;
72586;SDS011;60621;49.576;11.024;2023-06-14T04:35:09;8.73;;;5.32;;
72586;SDS011;60621;49.576;11.024;2023-06-14T04:36:12;8.30;;;5.25;;
72586;SDS011;60621;49.576;11.024;2023-06-14T04:37:14;8.85;;;5.32;;
72586;SDS011;60621;49.576;11.024;2023-06-14T04:38:16;8.68;;;5.07;;
72586;SDS011;60621;49.576;11.024;2023-06-14T04:39:19;8.77;;;5.63;;
72586;SDS011;60621;49.576;11.024;2023-06-14T04:40:24;10.00;;;5.35;;
72586;SDS011;60621;49.576;11.024;2023-06-14T04:41:26;8.50;;;5.25;;
72586;SDS011;60621;49.576;11.024;2023-06-14T04:42:32;8.70;;;5.40;;
72586;SDS011;60621;49.576;11.024;2023-06-14T04:43:33;9.15;;;5.30;;
72586;SDS011;60621;49.576;11.024;2023-06-14T04:44:39;10.68;;;5.78;;
72586;SDS011;60621;49.576;11.024;2023-06-14T04:45:41;7.93;;;5.05;;
72586;SDS011;60621;49.576;11.024;2023-06-14T04:46:46;9.65;;;5.10;;
72586;SDS011;60621;49.576;11.024;2023-06-14T04:47:48;8.10;;;4.35;;
72586;SDS011;60621;49.576;11.024;2023-06-14T04:48:51;9.20;;;5.40;;
72586;SDS011;60621;49.576;11.024;2023-06-14T04:49:53;7.28;;;5.03;;
72586;SDS011;60621;49.576;11.024;2023-06-14T04:50:54;8.55;;;5.13;;
72586;SDS011;60621;49.576;11.024;2023-06-14T04:51:56;8.50;;;4.68;;
72586;SDS011;60621;49.576;11.024;2023-06-14T04:53:03;7.47;;;5.10;;
72586;SDS011;60621;49.576;11.024;2023-06-14T04:54:04;7.03;;;4.88;;
72586;SDS011;60621;49.576;11.024;2023-06-14T04:55:06;8.95;;;4.93;;
72586;SDS011;60621;49.576;11.024;2023-06-14T04:56:08;7.80;;;4.55;;
72586;SDS011;60621;49.576;11.024;2023-06-14T04:57:09;7.35;;;4.70;;
72586;SDS011;60621;49.576;11.024;2023-06-14T04:58:15;7.03;;;4.80;;
72586;SDS011;60621;49.576;11.024;2023-06-14T04:59:17;8.38;;;5.05;;
72586;SDS011;60621;49.576;11.024;2023-06-14T05:00:19;7.70;;;4.80;;
72586;SDS011;60621;49.576;11.024;2023-06-14T05:01:21;7.65;;;4.63;;
72586;SDS011;60621;49.576;11.024;2023-06-14T05:02:24;7.32;;;4.65;;
72586;SDS011;60621;49.576;11.024;2023-06-14T05:03:27;7.85;;;4.72;;
72586;SDS011;60621;49.576;11.024;2023-06-14T05:05:31;7.80;;;4.60;;
72586;SDS011;60621;49.576;11.024;2023-06-14T05:06:33;8.05;;;4.75;;
72586;SDS011;60621;49.576;11.024;2023-06-14T05:07:34;7.95;;;4.78;;
72586;SDS011;60621;49.576;11.024;2023-06-14T05:08:36;7.25;;;4.53;;
72586;SDS011;60621;49.576;11.024;2023-06-14T05:09:38;8.50;;;4.68;;
72586;SDS011;60621;49.576;11.024;2023-06-14T05:10:39;7.45;;;4.90;;
72586;SDS011;60621;49.576;11.024;2023-06-14T05:11:41;7.03;;;4.43;;
72586;SDS011;60621;49.576;11.024;2023-06-14T05:12:45;7.47;;;4.70;;
72586;SDS011;60621;49.576;11.024;2023-06-14T05:13:49;9.57;;;4.90;;
72586;SDS011;60621;49.576;11.024;2023-06-14T05:14:52;7.32;;;5.00;;
72586;SDS011;60621;49.576;11.024;2023-06-14T05:15:54;7.05;;;4.70;;
72586;SDS011;60621;49.576;11.024;2023-06-14T05:16:55;8.68;;;4.40;;
72586;SDS011;60621;49.576;11.024;2023-06-14T05:17:57;8.60;;;5.15;;
72586;SDS011;60621;49.576;11.024;2023-06-14T05:18:59;10.75;;;5.07;;
72586;SDS011;60621;49.576;11.024;2023-06-14T05:20:00;7.88;;;4.68;;
72586;SDS011;60621;49.576;11.024;2023-06-14T05:21:02;8.50;;;5.00;;
72586;SDS011;60621;49.576;11.024;2023-06-14T05:22:05;7.82;;;4.90;;
72586;SDS011;60621;49.576;11.024;2023-06-14T05:23:08;8.25;;;5.10;;
72586;SDS011;60621;49.576;11.024;2023-06-14T05:24:16;8.07;;;4.80;;
72586;SDS011;60621;49.576;11.024;2023-06-14T05:25:21;7.22;;;4.90;;
72586;SDS011;60621;49.576;11.024;2023-06-14T05:26:22;7.70;;;5.00;;
72586;SDS011;60621;49.576;11.024;2023-06-14T05:27:29;9.43;;;5.18;;
72586;SDS011;60621;49.576;11.024;2023-06-14T05:28:31;8.50;;;4.68;;
72586;SDS011;60621;49.576;11.024;2023-06-14T05:29:33;6.68;;;4.30;;
72586;SDS011;60621;49.576;11.024;2023-06-14T05:30:35;8.25;;;4.85;;
72586;SDS011;60621;49.576;11.024;2023-06-14T05:31:37;7.32;;;4.65;;
72586;SDS011;60621;49.576;11.024;2023-06-14T05:32:39;7.00;;;4.70;;
72586;SDS011;60621;49.576;11.024;2023-06-14T05:33:40;8.77;;;4.65;;
72586;SDS011;60621;49.576;11.024;2023-06-14T05:34:42;8.68;;;5.05;;
72586;SDS011;60621;49.576;11.024;2023-06-14T05:35:44;7.05;;;4.68;;
72586;SDS011;60621;49.576;11.024;2023-06-14T05:36:46;7.38;;;4.45;;
72586;SDS011;60621;49.576;11.024;2023-06-14T05:37:48;7.28;;;4.80;;
72586;SDS011;60621;49.576;11.024;2023-06-14T05:38:49;8.18;;;3.92;;
72586;SDS011;60621;49.576;11.024;2023-06-14T05:39:52;7.90;;;5.00;;
72586;SDS011;60621;49.576;11.024;2023-06-14T05:40:53;8.48;;;4.78;;
72586;SDS011;60621;49.576;11.024;2023-06-14T05:41:55;8.75;;;5.05;;
72586;SDS011;60621;49.576;11.024;2023-06-14T05:42:57;8.52;;;4.75;;
72586;SDS011;60621;49.576;11.024;2023-06-14T05:43:58;9.35;;;4.18;;
72586;SDS011;60621;49.576;11.024;2023-06-14T05:45:01;7.88;;;4.68;;
72586;SDS011;60621;49.576;11.024;2023-06-14T05:46:03;8.95;;;4.72;;
72586;SDS011;60621;49.576;11.024;2023-06-14T05:47:05;11.18;;;4.80;;
72586;SDS011;60621;49.576;11.024;2023-06-14T05:48:07;7.95;;;4.82;;
72586;SDS011;60621;49.576;11.024;2023-06-14T05:49:08;6.32;;;4.50;;
72586;SDS011;60621;49.576;11.024;2023-06-14T05:50:10;8.55;;;5.00;;
72586;SDS011;60621;49.576;11.024;2023-06-14T05:51:11;7.90;;;4.78;;
72586;SDS011;60621;49.576;11.024;2023-06-14T05:52:13;9.07;;;5.25;;
72586;SDS011;60621;49.576;11.024;2023-06-14T05:53:15;7.93;;;4.85;;
72586;SDS011;60621;49.576;11.024;2023-06-14T05:54:16;7.10;;;4.85;;
72586;SDS011;60621;49.576;11.024;2023-06-14T05:55:18;7.13;;;4.80;;
72586;SDS011;60621;49.576;11.024;2023-06-14T05:56:20;8.90;;;5.07;;
72586;SDS011;60621;49.576;11.024;2023-06-14T05:57:24;9.38;;;5.20;;
72586;SDS011;60621;49.576;11.024;2023-06-14T05:58:25;7.97;;;4.95;;
72586;SDS011;60621;49.576;11.024;2023-06-14T05:59:27;6.70;;;4.55;;
72586;SDS011;60621;49.576;11.024;2023-06-14T06:00:29;9.52;;;4.97;;
72586;SDS011;60621;49.576;11.024;2023-06-14T06:01:30;8.13;;;4.97;;
72586;SDS011;60621;49.576;11.024;2023-06-14T06:02:34;7.15;;;4.88;;
72586;SDS011;60621;49.576;11.024;2023-06-14T06:03:36;8.30;;;4.93;;
72586;SDS011;60621;49.576;11.024;2023-06-14T06:04:37;7.20;;;4.85;;
72586;SDS011;60621;49.576;11.024;2023-06-14T06:05:39;7.38;;;4.60;;
72586;SDS011;60621;49.576;11.024;2023-06-14T06:06:41;8.60;;;4.85;;
72586;SDS011;60621;49.576;11.024;2023-06-14T06:07:43;10.05;;;4.70;;
72586;SDS011;60621;49.576;11.024;2023-06-14T06:08:46;8.90;;;4.97;;
72586;SDS011;60621;49.576;11.024;2023-06-14T06:09:48;7.85;;;4.88;;
72586;SDS011;60621;49.576;11.024;2023-06-14T06:10:49;7.90;;;4.85;;
72586;SDS011;60621;49.576;11.024;2023-06-14T06:11:52;6.40;;;4.45;;
72586;SDS011;60621;49.576;11.024;2023-06-14T06:12:54;7.80;;;4.28;;
72586;SDS011;60621;49.576;11.024;2023-06-14T06:13:56;7.38;;;4.50;;
72586;SDS011;60621;49.576;11.024;2023-06-14T06:14:58;6.93;;;4.15;;
72586;SDS011;60621;49.576;11.024;2023-06-14T06:16:01;6.55;;;4.35;;